Time;durP1;ratioP1;P1;durP2;ratioP2;P2;SDS_P1;SDS_P2;PMS_P1;PMS_P2;Temp;Humidity;BMP_temperature;BMP_pressure;BME280_temperature;BME280_humidity;BME280_pressure;Samples;Min_cycle;Max_cycle;Signal;HPM_P1;HPM_P2
2022/12/11 00:01:33;;;;;;;20.87;12.70;;;3.90;99.90;;;;;;5067495;28;20357;-31
2022/12/11 00:04:00;;;;;;;24.80;14.03;;;3.90;99.90;;;;;;5066305;28;20592;-31
2022/12/11 00:06:29;;;;;;;24.67;14.50;;;3.90;99.90;;;;;;5065863;28;20657;-31
2022/12/11 00:08:56;;;;;;;24.53;14.90;;;3.90;99.90;;;;;;5065409;28;20206;-31
2022/12/11 00:11:23;;;;;;;21.93;13.97;;;3.90;99.90;;;;;;5045562;28;20204;-32
2022/12/11 00:13:51;;;;;;;21.43;13.77;;;3.90;99.90;;;;;;5052797;28;20649;-31
2022/12/11 00:16:18;;;;;;;21.70;14.43;;;3.90;99.90;;;;;;5064494;28;20213;-31
2022/12/11 00:18:52;;;;;;;21.73;13.30;;;3.90;99.90;;;;;;5065956;28;20227;-31
2022/12/11 00:21:22;;;;;;;20.23;13.57;;;3.90;99.90;;;;;;5066894;28;20324;-31
2022/12/11 00:23:49;;;;;;;21.43;12.67;;;3.90;99.90;;;;;;5066355;28;20306;-31
2022/12/11 00:26:18;;;;;;;20.77;13.30;;;3.90;99.90;;;;;;5066233;28;20196;-31
2022/12/11 00:28:49;;;;;;;19.23;12.30;;;3.90;99.90;;;;;;5064529;28;20482;-31
2022/12/11 00:31:19;;;;;;;20.43;12.87;;;4.00;99.90;;;;;;5066929;28;20203;-31
2022/12/11 00:33:49;;;;;;;22.47;13.70;;;4.00;99.90;;;;;;5066504;28;20296;-31
2022/12/11 00:36:22;;;;;;;22.03;13.47;;;4.00;99.90;;;;;;5065134;28;20557;-31
2022/12/11 00:38:52;;;;;;;23.67;13.53;;;4.00;99.90;;;;;;5064301;28;20268;-31
2022/12/11 00:41:24;;;;;;;22.37;12.83;;;4.00;99.90;;;;;;5066719;28;20200;-31
2022/12/11 00:43:51;;;;;;;22.97;13.43;;;4.00;99.90;;;;;;5065096;28;20198;-31
2022/12/11 00:46:20;;;;;;;21.37;13.27;;;4.10;99.90;;;;;;5065020;28;20198;-30
2022/12/11 00:48:48;;;;;;;23.47;13.53;;;4.10;99.90;;;;;;5066027;28;20665;-31
2022/12/11 00:51:17;;;;;;;26.97;14.97;;;4.10;99.90;;;;;;5065879;28;20288;-31
2022/12/11 00:53:46;;;;;;;23.43;14.00;;;4.10;99.90;;;;;;5064138;28;20207;-31
2022/12/11 00:56:16;;;;;;;22.13;14.03;;;4.10;99.90;;;;;;5065036;28;20211;-31
2022/12/11 00:58:47;;;;;;;23.67;13.50;;;4.10;99.90;;;;;;5065615;28;20681;-31
2022/12/11 01:01:20;;;;;;;21.83;13.57;;;4.10;99.90;;;;;;5065836;28;20202;-31
2022/12/11 01:03:48;;;;;;;22.97;14.13;;;4.10;99.90;;;;;;5062182;28;20214;-31
2022/12/11 01:06:22;;;;;;;24.40;14.50;;;4.10;99.90;;;;;;5064772;28;20784;-31
2022/12/11 01:10:22;;;;;;;24.27;14.90;;;4.10;99.90;;;;;;5064164;28;20211;-31
2022/12/11 01:11:41;;;;;;;24.70;13.43;;;4.20;99.90;;;;;;5065647;28;20242;-31
2022/12/11 01:14:10;;;;;;;23.50;15.00;;;4.20;99.90;;;;;;5064531;28;20242;-31
2022/12/11 01:16:37;;;;;;;25.67;15.67;;;4.20;99.90;;;;;;5065225;28;20925;-31
2022/12/11 01:19:04;;;;;;;24.43;14.60;;;4.20;99.90;;;;;;5065037;28;20227;-31
2022/12/11 01:21:35;;;;;;;27.23;15.93;;;4.20;99.90;;;;;;5065396;28;20270;-31
2022/12/11 01:24:04;;;;;;;23.87;14.77;;;4.20;99.90;;;;;;5063551;28;20215;-31
2022/12/11 01:26:38;;;;;;;25.77;15.70;;;4.20;99.90;;;;;;5064686;28;20204;-31
2022/12/11 01:29:07;;;;;;;27.87;16.43;;;4.20;99.90;;;;;;5065399;28;20199;-31
2022/12/11 01:31:37;;;;;;;25.90;16.20;;;4.20;99.90;;;;;;5065293;28;20222;-31
2022/12/11 01:34:04;;;;;;;25.17;15.23;;;4.20;99.90;;;;;;5063381;28;20765;-31
2022/12/11 01:36:33;;;;;;;24.77;15.57;;;4.20;99.90;;;;;;5064314;28;20218;-31
2022/12/11 01:39:00;;;;;;;26.13;15.83;;;4.20;99.90;;;;;;5064089;28;20332;-30
2022/12/11 01:41:28;;;;;;;28.07;16.60;;;4.20;99.90;;;;;;5065020;28;20184;-30
2022/12/11 01:44:24;;;;;;;28.57;17.03;;;4.20;99.90;;;;;;5063691;28;20191;-30
2022/12/11 01:46:55;;;;;;;30.27;16.13;;;4.20;99.90;;;;;;5063275;28;20202;-30
2022/12/11 01:49:30;;;;;;;29.63;17.27;;;4.20;99.90;;;;;;5064277;28;20224;-30
2022/12/11 01:52:14;;;;;;;28.67;17.30;;;4.20;99.90;;;;;;5064938;28;20732;-30
2022/12/11 01:54:42;;;;;;;28.77;16.47;;;4.30;99.90;;;;;;5064344;28;20226;-30
2022/12/11 01:57:12;;;;;;;30.63;17.60;;;4.30;99.90;;;;;;5061937;28;20225;-30
2022/12/11 01:59:43;;;;;;;27.23;16.40;;;4.30;99.90;;;;;;5062314;28;20579;-30
2022/12/11 02:02:18;;;;;;;29.27;17.10;;;4.30;99.90;;;;;;5064902;28;20619;-30
2022/12/11 02:04:48;;;;;;;28.73;16.97;;;4.30;99.90;;;;;;5044798;28;20223;-30
2022/12/11 02:07:15;;;;;;;33.70;17.60;;;4.30;99.90;;;;;;5051110;28;20209;-30
2022/12/11 02:09:46;;;;;;;29.50;17.53;;;4.30;99.90;;;;;;5055563;28;20204;-30
2022/12/11 02:12:22;;;;;;;28.43;17.23;;;4.30;99.90;;;;;;5062984;28;20699;-30
2022/12/11 02:15:10;;;;;;;31.10;17.33;;;4.40;99.90;;;;;;5062651;28;20297;-30
2022/12/11 02:17:45;;;;;;;32.17;16.33;;;4.40;99.90;;;;;;5052148;28;20285;-30
2022/12/11 02:20:35;;;;;;;30.90;17.57;;;4.30;99.90;;;;;;5048590;28;20187;-30
2022/12/11 02:23:11;;;;;;;31.73;16.80;;;4.30;99.90;;;;;;5062206;28;20249;-30
2022/12/11 02:26:19;;;;;;;29.63;16.83;;;4.30;99.90;;;;;;5059564;28;20607;-30
2022/12/11 02:28:52;;;;;;;30.17;17.40;;;4.30;99.90;;;;;;5059117;28;20239;-30
2022/12/11 02:31:45;;;;;;;29.40;16.13;;;4.30;99.90;;;;;;5058284;28;20203;-30
2022/12/11 02:34:33;;;;;;;30.23;16.20;;;4.30;99.90;;;;;;5061749;28;20600;-30
2022/12/11 02:37:08;;;;;;;29.23;16.20;;;4.30;99.90;;;;;;5064207;28;20619;-29
2022/12/11 02:39:37;;;;;;;30.00;17.50;;;4.30;99.90;;;;;;5063482;28;20326;-30
2022/12/11 02:42:09;;;;;;;32.27;16.33;;;4.30;99.90;;;;;;5064531;28;20214;-30
2022/12/11 02:44:37;;;;;;;29.67;16.30;;;4.30;99.90;;;;;;5064382;28;20595;-30
2022/12/11 02:47:10;;;;;;;31.17;17.73;;;4.40;99.90;;;;;;5063091;28;20298;-30
2022/12/11 02:49:42;;;;;;;26.57;16.00;;;4.40;99.90;;;;;;5062707;28;20302;-30
2022/12/11 02:52:13;;;;;;;28.67;16.97;;;4.40;99.90;;;;;;5063200;28;20215;-30
2022/12/11 02:54:43;;;;;;;26.97;15.93;;;4.40;99.90;;;;;;5062077;28;20295;-30
2022/12/11 02:57:32;;;;;;;31.40;16.60;;;4.40;99.90;;;;;;5065050;28;20219;-30
2022/12/11 03:00:03;;;;;;;29.03;16.43;;;4.40;99.90;;;;;;5063657;28;20613;-30
2022/12/11 03:02:35;;;;;;;26.70;16.50;;;4.40;99.90;;;;;;5066411;28;20203;-30
2022/12/11 03:05:04;;;;;;;27.83;16.60;;;4.40;99.90;;;;;;5067763;28;20230;-30
2022/12/11 03:07:35;;;;;;;27.30;16.73;;;4.40;99.90;;;;;;5065774;28;20208;-30
2022/12/11 03:10:07;;;;;;;30.90;17.40;;;4.40;99.90;;;;;;5066942;28;20202;-29
2022/12/11 03:12:39;;;;;;;26.70;15.63;;;4.40;99.90;;;;;;5067327;28;20978;-30
2022/12/11 03:15:14;;;;;;;27.77;16.57;;;4.40;99.90;;;;;;5067596;28;20198;-30
2022/12/11 03:17:59;;;;;;;25.80;15.77;;;4.40;99.90;;;;;;5065861;28;20207;-30
2022/12/11 03:21:01;;;;;;;29.93;17.83;;;4.40;99.90;;;;;;5068002;28;20211;-30
2022/12/11 03:23:44;;;;;;;28.33;17.63;;;4.40;99.90;;;;;;5066782;28;20195;-30
2022/12/11 03:26:18;;;;;;;26.40;15.97;;;4.40;99.90;;;;;;5064211;28;20274;-30
2022/12/11 03:29:10;;;;;;;30.73;16.77;;;4.40;99.90;;;;;;5064941;28;20554;-30
2022/12/11 03:31:44;;;;;;;30.63;16.70;;;4.40;99.90;;;;;;5067487;28;20196;-30
2022/12/11 03:34:35;;;;;;;28.90;16.87;;;4.40;99.90;;;;;;5067502;28;20294;-30
2022/12/11 03:37:06;;;;;;;31.87;18.17;;;4.40;99.90;;;;;;5066905;28;20203;-30
2022/12/11 03:39:45;;;;;;;28.17;16.27;;;4.40;99.90;;;;;;5064901;28;20212;-30
2022/12/11 03:42:14;;;;;;;28.53;17.10;;;4.40;99.90;;;;;;5067743;28;20195;-30
2022/12/11 03:44:46;;;;;;;30.30;16.50;;;4.40;99.90;;;;;;5066247;28;20208;-30
2022/12/11 03:47:19;;;;;;;30.33;17.27;;;4.40;99.90;;;;;;5058354;28;20655;-30
2022/12/11 03:49:47;;;;;;;29.80;16.37;;;4.40;99.90;;;;;;5066005;28;20239;-30
2022/12/11 03:52:18;;;;;;;32.93;17.33;;;4.40;99.90;;;;;;5067335;28;20191;-30
2022/12/11 03:54:49;;;;;;;27.80;16.40;;;4.40;99.90;;;;;;5066129;28;20523;-30
2022/12/11 03:57:21;;;;;;;28.60;16.70;;;4.40;99.90;;;;;;5066282;28;20286;-30
2022/12/11 03:59:51;;;;;;;26.70;15.97;;;4.40;99.90;;;;;;5066525;28;20238;-30
2022/12/11 04:02:18;;;;;;;26.50;15.77;;;4.40;99.90;;;;;;5064963;28;20211;-30
2022/12/11 04:04:45;;;;;;;29.53;16.60;;;4.40;99.90;;;;;;5064096;28;20289;-30
2022/12/11 04:07:12;;;;;;;29.27;16.33;;;4.40;99.90;;;;;;5066230;28;20579;-30
2022/12/11 04:09:39;;;;;;;26.80;16.50;;;4.40;99.90;;;;;;5065364;28;20763;-30
2022/12/11 04:12:11;;;;;;;29.47;16.83;;;4.40;99.90;;;;;;5067226;28;20592;-30
2022/12/11 04:15:02;;;;;;;27.30;16.03;;;4.40;99.90;;;;;;5065977;28;20207;-30
2022/12/11 04:26:18;;;;;;;29.40;16.67;;;4.40;99.90;;;;;;5065929;28;20674;-30
2022/12/11 04:28:46;;;;;;;26.80;15.47;;;4.40;99.90;;;;;;5065655;28;20257;-30
2022/12/11 04:31:19;;;;;;;26.80;15.57;;;4.40;99.90;;;;;;5066311;28;20188;-30
2022/12/11 04:33:47;;;;;;;23.70;14.47;;;4.40;99.90;;;;;;5066175;28;20192;-30
2022/12/11 04:36:14;;;;;;;25.47;14.97;;;4.40;99.90;;;;;;5064745;28;21037;-30
2022/12/11 04:38:42;;;;;;;25.63;14.43;;;4.40;99.90;;;;;;5064769;28;20220;-30
2022/12/11 04:41:13;;;;;;;26.00;14.70;;;4.40;99.90;;;;;;5066280;28;20203;-31
2022/12/11 04:43:45;;;;;;;25.77;15.83;;;4.40;99.90;;;;;;5064526;28;20816;-30
2022/12/11 04:46:17;;;;;;;29.17;15.60;;;4.40;99.90;;;;;;5065436;28;20202;-30
2022/12/11 04:48:45;;;;;;;26.87;14.87;;;4.40;99.90;;;;;;5065935;28;20201;-30
2022/12/11 04:51:17;;;;;;;28.60;15.40;;;4.40;99.90;;;;;;5064520;28;20239;-31
2022/12/11 04:53:45;;;;;;;28.73;15.73;;;4.40;99.90;;;;;;5064981;28;20254;-32
2022/12/11 04:56:14;;;;;;;27.73;15.17;;;4.40;99.90;;;;;;5064419;28;20214;-32
2022/12/11 04:58:43;;;;;;;29.47;16.37;;;4.40;99.90;;;;;;5046042;28;20219;-32
2022/12/11 05:01:18;;;;;;;29.10;15.77;;;4.40;99.90;;;;;;5045969;28;20651;-31
2022/12/11 05:03:48;;;;;;;31.33;16.10;;;4.40;99.90;;;;;;5053917;28;21127;-32
2022/12/11 05:06:20;;;;;;;29.37;15.93;;;4.40;99.90;;;;;;5065049;28;20203;-31
2022/12/11 05:08:47;;;;;;;26.93;14.97;;;4.30;99.90;;;;;;5064829;28;20203;-32
2022/12/11 05:11:17;;;;;;;30.40;16.37;;;4.30;99.90;;;;;;5065239;28;20296;-32
2022/12/11 05:13:47;;;;;;;32.07;16.67;;;4.30;99.90;;;;;;5066215;28;20658;-31
2022/12/11 05:16:15;;;;;;;33.43;17.20;;;4.30;99.90;;;;;;5065485;28;20207;-31
2022/12/11 05:18:43;;;;;;;30.50;15.90;;;4.30;99.90;;;;;;5064333;28;20226;-31
2022/12/11 05:21:14;;;;;;;33.57;17.30;;;4.30;99.90;;;;;;5064475;28;20596;-32
2022/12/11 05:23:41;;;;;;;29.57;16.00;;;4.30;99.90;;;;;;5065367;28;20403;-32
2022/12/11 05:26:15;;;;;;;34.53;17.40;;;4.30;99.90;;;;;;5065056;28;20254;-32
2022/12/11 05:28:43;;;;;;;33.03;17.67;;;4.30;99.90;;;;;;5045712;28;20203;-31
2022/12/11 05:31:18;;;;;;;32.47;16.93;;;4.30;99.90;;;;;;5062483;28;20199;-32
2022/12/11 05:33:47;;;;;;;32.47;16.97;;;4.30;99.90;;;;;;5065193;28;20265;-32
2022/12/11 05:36:22;;;;;;;31.97;17.73;;;4.30;99.90;;;;;;5063334;28;20298;-32
2022/12/11 05:38:52;;;;;;;33.43;17.70;;;4.30;99.90;;;;;;5064952;28;20227;-32
2022/12/11 05:41:21;;;;;;;35.70;18.07;;;4.30;99.90;;;;;;5065898;28;20284;-32
2022/12/11 05:43:49;;;;;;;34.80;18.83;;;4.30;99.90;;;;;;5065351;28;20241;-32
2022/12/11 05:46:22;;;;;;;34.90;17.97;;;4.30;99.90;;;;;;5063681;28;20782;-32
2022/12/11 05:48:52;;;;;;;32.70;17.17;;;4.30;99.90;;;;;;5065521;28;20226;-31
2022/12/11 05:51:20;;;;;;;35.87;17.70;;;4.30;99.90;;;;;;5064414;28;20239;-32
2022/12/11 05:53:49;;;;;;;34.13;17.93;;;4.30;99.90;;;;;;5064639;28;20284;-32
2022/12/11 05:56:19;;;;;;;32.10;18.10;;;4.30;99.90;;;;;;5064127;28;20219;-31
2022/12/11 05:58:47;;;;;;;36.73;18.37;;;4.30;99.90;;;;;;5065251;28;20730;-32
2022/12/11 06:01:20;;;;;;;35.20;18.17;;;4.30;99.90;;;;;;5036685;28;20196;-32
2022/12/11 06:03:49;;;;;;;37.03;18.43;;;4.30;99.90;;;;;;5053994;28;20286;-31
2022/12/11 06:06:17;;;;;;;32.63;17.50;;;4.30;99.90;;;;;;5050253;28;20215;-32
2022/12/11 06:08:44;;;;;;;33.60;18.43;;;4.30;99.90;;;;;;5058694;28;20295;-32
2022/12/11 06:11:16;;;;;;;37.50;18.80;;;4.30;99.90;;;;;;5062511;28;20196;-31
2022/12/11 06:13:52;;;;;;;37.80;18.73;;;4.30;99.90;;;;;;5062388;28;20677;-31
2022/12/11 06:16:23;;;;;;;34.70;17.63;;;4.30;99.90;;;;;;5061878;28;20291;-31
2022/12/11 06:18:51;;;;;;;33.97;17.73;;;4.30;99.90;;;;;;5049987;28;20220;-31
2022/12/11 06:21:29;;;;;;;32.33;17.10;;;4.30;99.90;;;;;;5064853;28;20685;-32
2022/12/11 06:24:04;;;;;;;33.83;17.90;;;4.30;99.90;;;;;;5060175;28;20223;-32
2022/12/11 06:26:33;;;;;;;34.57;19.30;;;4.30;99.90;;;;;;5061863;28;20299;-31
2022/12/11 06:29:01;;;;;;;32.57;17.70;;;4.30;99.90;;;;;;5062046;28;20299;-31
2022/12/11 06:31:32;;;;;;;33.43;19.00;;;4.40;99.90;;;;;;5052301;28;20747;-32
2022/12/11 06:34:02;;;;;;;34.10;18.47;;;4.40;99.90;;;;;;5068501;28;20234;-32
2022/12/11 06:36:34;;;;;;;35.43;18.33;;;4.40;99.90;;;;;;5068247;28;20211;-32
2022/12/11 06:39:02;;;;;;;33.13;17.90;;;4.40;99.90;;;;;;5067851;28;20305;-32
2022/12/11 06:41:29;;;;;;;37.50;19.93;;;4.30;99.90;;;;;;5068575;28;20206;-31
2022/12/11 06:43:58;;;;;;;35.53;19.03;;;4.40;99.90;;;;;;5055918;28;20195;-32
2022/12/11 06:46:25;;;;;;;35.70;19.80;;;4.30;99.90;;;;;;5051357;28;20708;-31
2022/12/11 06:48:52;;;;;;;35.77;19.00;;;4.40;99.90;;;;;;5065087;28;20222;-31
2022/12/11 06:51:21;;;;;;;41.07;19.30;;;4.40;99.90;;;;;;5046855;28;20224;-32
2022/12/11 06:53:53;;;;;;;36.47;19.77;;;4.40;99.90;;;;;;5056824;28;20690;-32
2022/12/11 06:56:26;;;;;;;38.90;20.43;;;4.40;99.90;;;;;;5049552;28;20241;-33
2022/12/11 06:58:56;;;;;;;37.37;18.57;;;4.40;99.90;;;;;;5053952;28;20228;-32
2022/12/11 07:01:28;;;;;;;37.10;19.57;;;4.40;99.90;;;;;;5065441;28;20223;-31
2022/12/11 07:03:59;;;;;;;38.77;19.27;;;4.40;99.90;;;;;;5068695;28;20192;-30
2022/12/11 07:06:27;;;;;;;35.00;19.50;;;4.40;99.90;;;;;;5069021;28;20661;-30
2022/12/11 07:08:55;;;;;;;40.87;21.03;;;4.40;99.90;;;;;;5067537;28;20211;-30
2022/12/11 07:11:25;;;;;;;37.37;19.30;;;4.40;99.90;;;;;;5059872;28;20263;-30
2022/12/11 07:13:52;;;;;;;37.73;19.07;;;4.30;99.90;;;;;;5064514;28;20314;-30
2022/12/11 07:16:19;;;;;;;35.57;19.20;;;4.30;99.90;;;;;;5057722;28;20196;-30
2022/12/11 07:18:48;;;;;;;37.13;20.53;;;4.30;99.90;;;;;;5066897;28;20222;-30
2022/12/11 07:21:15;;;;;;;37.20;19.87;;;4.40;99.90;;;;;;5059738;28;20286;-31
2022/12/11 07:23:43;;;;;;;37.20;20.73;;;4.40;99.90;;;;;;5065722;28;20594;-36
2022/12/11 07:26:12;;;;;;;35.83;20.13;;;4.40;99.90;;;;;;5065205;28;20257;-31
2022/12/11 07:28:44;;;;;;;39.43;20.10;;;4.40;99.90;;;;;;5057012;28;20589;-31
2022/12/11 07:31:14;;;;;;;37.50;20.13;;;4.40;99.90;;;;;;5065798;28;20207;-31
2022/12/11 07:33:45;;;;;;;34.87;19.53;;;4.40;99.90;;;;;;5064831;28;20216;-31
2022/12/11 07:36:13;;;;;;;36.33;18.80;;;4.40;99.90;;;;;;5063033;28;20298;-31
2022/12/11 07:38:41;;;;;;;32.30;19.20;;;4.40;99.90;;;;;;5054350;28;20219;-31
2022/12/11 07:41:11;;;;;;;37.37;20.13;;;4.40;99.90;;;;;;5056352;28;20226;-31
2022/12/11 07:43:38;;;;;;;36.53;20.10;;;4.30;99.90;;;;;;5050125;28;20215;-31
2022/12/11 07:46:13;;;;;;;32.57;18.90;;;4.30;99.90;;;;;;5056522;28;20200;-30
2022/12/11 07:48:44;;;;;;;34.00;18.40;;;4.30;99.90;;;;;;5056129;28;20204;-31
2022/12/11 07:51:16;;;;;;;32.60;18.53;;;4.40;99.90;;;;;;5067358;28;20725;-31
2022/12/11 07:53:45;;;;;;;36.37;19.90;;;4.30;99.90;;;;;;5064960;28;20255;-31
2022/12/11 07:56:13;;;;;;;33.17;18.90;;;4.40;99.90;;;;;;5066383;28;20670;-31
2022/12/11 07:58:42;;;;;;;31.87;17.23;;;4.40;99.90;;;;;;5054862;28;20208;-31
2022/12/11 08:01:20;;;;;;;33.97;18.07;;;4.40;99.90;;;;;;5060390;28;20205;-31
2022/12/11 08:03:48;;;;;;;33.20;18.30;;;4.40;99.90;;;;;;5066897;28;20200;-31
2022/12/11 08:06:15;;;;;;;32.40;18.50;;;4.40;99.90;;;;;;5067228;28;20254;-31
2022/12/11 08:08:43;;;;;;;33.63;18.07;;;4.40;99.90;;;;;;5062707;28;20227;-31
2022/12/11 08:11:14;;;;;;;34.80;18.83;;;4.40;99.90;;;;;;5082206;28;20787;-31
2022/12/11 08:13:43;;;;;;;31.10;17.53;;;4.40;99.90;;;;;;5053213;28;20207;-29
2022/12/11 08:16:15;;;;;;;33.97;18.80;;;4.30;99.90;;;;;;5065162;28;20294;-30
2022/12/11 08:18:44;;;;;;;33.03;18.90;;;4.30;99.90;;;;;;5066479;28;20202;-30
2022/12/11 08:21:20;;;;;;;36.57;20.53;;;4.30;99.90;;;;;;5066546;28;20223;-30
2022/12/11 08:23:48;;;;;;;31.23;18.30;;;4.30;99.90;;;;;;5065631;28;20225;-30
2022/12/11 08:26:21;;;;;;;38.47;20.00;;;4.30;99.90;;;;;;5082427;28;20211;-30
2022/12/11 08:28:56;;;;;;;31.87;18.50;;;4.30;99.90;;;;;;5085648;28;20660;-32
2022/12/11 08:31:24;;;;;;;34.23;18.27;;;4.30;99.90;;;;;;5071353;28;20223;-30
2022/12/11 08:33:54;;;;;;;32.33;18.70;;;4.30;99.90;;;;;;5065928;28;20349;-30
2022/12/11 08:36:27;;;;;;;31.30;18.47;;;4.30;99.90;;;;;;5064765;28;20257;-30
2022/12/11 08:38:57;;;;;;;33.50;19.60;;;4.30;99.90;;;;;;5065373;28;20195;-30
2022/12/11 08:41:27;;;;;;;35.17;18.60;;;4.30;99.90;;;;;;5063023;28;20277;-30
2022/12/11 08:44:00;;;;;;;31.30;17.30;;;4.30;99.90;;;;;;5077140;28;20678;-30
2022/12/11 08:46:34;;;;;;;31.60;18.13;;;4.30;99.90;;;;;;5072590;28;20204;-30
2022/12/11 08:49:03;;;;;;;29.97;17.40;;;4.30;99.90;;;;;;5053807;28;20321;-30
2022/12/11 08:51:30;;;;;;;31.43;17.67;;;4.30;99.90;;;;;;5066143;28;20223;-30
2022/12/11 08:53:59;;;;;;;32.13;17.80;;;4.30;99.90;;;;;;5064460;28;20741;-30
2022/12/11 08:56:28;;;;;;;31.53;17.60;;;4.30;99.90;;;;;;5066139;28;20253;-30
2022/12/11 08:59:05;;;;;;;34.87;18.70;;;4.30;99.90;;;;;;5051211;28;20224;-31
2022/12/11 09:01:33;;;;;;;32.73;18.43;;;4.30;99.90;;;;;;5057400;28;20211;-31
2022/12/11 09:04:02;;;;;;;30.67;18.23;;;4.30;99.90;;;;;;5065821;28;20198;-32
2022/12/11 09:06:34;;;;;;;33.80;17.60;;;4.30;99.90;;;;;;5065947;28;20218;-32
2022/12/11 09:09:02;;;;;;;32.30;18.77;;;4.30;99.90;;;;;;5065778;28;20196;-31
2022/12/11 09:11:32;;;;;;;31.77;17.63;;;4.30;99.90;;;;;;5063784;28;20210;-31
2022/12/11 09:14:00;;;;;;;33.87;19.10;;;4.30;99.90;;;;;;5081883;28;20207;-32
2022/12/11 09:16:39;;;;;;;29.43;16.93;;;4.30;99.90;;;;;;5071290;28;20211;-32
2022/12/11 09:19:13;;;;;;;32.33;18.10;;;4.30;99.90;;;;;;5051101;28;20259;-32
2022/12/11 09:21:41;;;;;;;32.17;16.90;;;4.30;99.90;;;;;;5053900;28;20210;-31
2022/12/11 09:24:10;;;;;;;30.33;17.87;;;4.30;99.90;;;;;;5054033;28;20257;-32
2022/12/11 09:26:37;;;;;;;31.13;17.57;;;4.30;99.90;;;;;;5056409;28;20640;-31
2022/12/11 09:29:07;;;;;;;31.97;18.40;;;4.40;99.90;;;;;;5071245;28;20203;-31
2022/12/11 09:31:38;;;;;;;29.20;17.37;;;4.30;99.90;;;;;;5063833;28;20584;-32
2022/12/11 09:34:10;;;;;;;31.30;18.17;;;4.30;99.90;;;;;;5059673;28;20298;-32
2022/12/11 09:36:41;;;;;;;31.67;17.93;;;4.40;99.90;;;;;;5053682;28;20235;-32
2022/12/11 09:39:12;;;;;;;31.77;17.47;;;4.30;99.90;;;;;;5047676;28;20216;-32
2022/12/11 09:42:00;;;;;;;26.63;15.40;;;4.40;99.90;;;;;;5058259;28;20583;-31
2022/12/11 09:44:40;;;;;;;32.37;17.27;;;4.40;99.90;;;;;;5079889;28;20203;-32
2022/12/11 09:47:34;;;;;;;31.03;17.50;;;4.40;99.90;;;;;;5050189;28;20208;-32
2022/12/11 09:50:11;;;;;;;29.10;17.10;;;4.40;99.90;;;;;;5053884;28;20338;-32
2022/12/11 09:52:59;;;;;;;27.70;16.10;;;4.40;99.90;;;;;;5046152;28;20219;-31
2022/12/11 09:55:38;;;;;;;28.80;15.90;;;4.40;99.90;;;;;;5063528;28;20238;-32
2022/12/11 09:58:11;;;;;;;27.13;14.77;;;4.40;99.90;;;;;;5054890;28;20610;-31
2022/12/11 10:00:45;;;;;;;24.97;15.40;;;4.40;99.90;;;;;;5085388;28;20223;-32
2022/12/11 10:03:40;;;;;;;26.33;15.27;;;4.30;99.90;;;;;;5079526;28;20195;-30
2022/12/11 10:06:33;;;;;;;28.37;15.57;;;4.30;99.90;;;;;;5055256;28;20646;-32
2022/12/11 10:09:27;;;;;;;27.77;16.07;;;4.30;99.90;;;;;;5054897;28;20294;-30
2022/12/11 10:12:39;;;;;;;25.57;14.63;;;4.30;99.90;;;;;;5059617;28;20195;-30
2022/12/11 10:15:35;;;;;;;27.07;15.33;;;4.30;99.90;;;;;;5046220;28;20195;-32
2022/12/11 10:18:17;;;;;;;26.17;15.77;;;4.40;99.90;;;;;;5046941;28;20208;-34
2022/12/11 10:20:45;;;;;;;26.30;15.13;;;4.40;99.90;;;;;;5047469;28;20219;-31
2022/12/11 10:23:45;;;;;;;27.60;16.23;;;4.40;99.90;;;;;;5048440;28;20195;-31
2022/12/11 10:26:18;;;;;;;24.30;14.47;;;4.40;99.90;;;;;;5050988;28;20243;-31
2022/12/11 10:28:46;;;;;;;26.37;15.17;;;4.40;99.90;;;;;;5063571;28;20661;-31
2022/12/11 10:31:17;;;;;;;27.37;15.17;;;4.50;99.90;;;;;;5061199;28;20208;-32
2022/12/11 10:34:03;;;;;;;28.23;16.17;;;4.50;99.90;;;;;;5063065;28;20319;-31
2022/12/11 10:36:34;;;;;;;27.73;15.30;;;4.50;99.90;;;;;;5048707;28;20200;-32
2022/12/11 10:39:09;;;;;;;27.67;15.47;;;4.50;99.90;;;;;;5058272;28;20215;-32
2022/12/11 10:41:38;;;;;;;29.40;16.40;;;4.50;99.90;;;;;;5054636;28;20306;-32
2022/12/11 10:44:38;;;;;;;28.03;15.83;;;4.50;99.90;;;;;;5068492;28;20258;-31
2022/12/11 10:47:10;;;;;;;27.90;15.37;;;4.60;99.90;;;;;;5059497;28;20302;-32
2022/12/11 10:49:42;;;;;;;24.23;14.93;;;4.60;99.90;;;;;;5059456;28;20230;-30
2022/12/11 10:52:20;;;;;;;28.13;15.87;;;4.60;99.90;;;;;;5064628;28;20538;-30
2022/12/11 10:55:05;;;;;;;25.33;15.23;;;4.70;99.90;;;;;;5063650;28;20209;-30
2022/12/11 10:57:35;;;;;;;28.70;15.70;;;4.70;99.90;;;;;;5060313;28;20207;-30
2022/12/11 11:00:27;;;;;;;27.50;15.97;;;4.70;99.90;;;;;;5070204;28;20567;-30
2022/12/11 11:02:54;;;;;;;28.07;15.63;;;4.70;99.90;;;;;;5070512;28;20520;-30
2022/12/11 11:05:34;;;;;;;29.70;16.27;;;4.70;99.90;;;;;;5047674;28;20222;-31
2022/12/11 11:08:12;;;;;;;25.53;15.50;;;4.60;99.90;;;;;;5061802;28;20286;-30
2022/12/11 11:10:59;;;;;;;27.63;15.73;;;4.60;99.90;;;;;;5062583;28;20218;-30
2022/12/11 11:13:32;;;;;;;27.60;14.43;;;4.60;99.90;;;;;;5048220;28;20569;-30
2022/12/11 11:16:12;;;;;;;24.50;15.50;;;4.60;99.90;;;;;;5059491;28;20247;-31
2022/12/11 11:18:50;;;;;;;25.73;14.70;;;4.70;99.90;;;;;;5060752;28;20227;-30
2022/12/11 11:21:18;;;;;;;25.67;14.33;;;4.70;99.90;;;;;;5055325;28;20314;-30
2022/12/11 11:23:48;;;;;;;27.40;16.03;;;4.60;99.90;;;;;;5047008;28;20196;-30
2022/12/11 11:26:21;;;;;;;26.37;15.97;;;4.70;99.90;;;;;;5055038;28;20758;-30
2022/12/11 11:28:53;;;;;;;26.77;15.50;;;4.70;99.90;;;;;;5049387;28;20295;-31
2022/12/11 11:31:30;;;;;;;25.50;15.50;;;4.70;99.90;;;;;;5057130;28;20740;-30
2022/12/11 11:34:07;;;;;;;27.03;14.67;;;4.70;99.90;;;;;;5048668;28;20616;-30
2022/12/11 11:36:41;;;;;;;24.87;14.30;;;4.70;99.90;;;;;;5060022;28;20711;-30
2022/12/11 11:39:11;;;;;;;26.27;15.43;;;4.70;99.90;;;;;;5049567;28;20224;-30
2022/12/11 11:42:14;;;;;;;24.57;14.63;;;4.70;99.90;;;;;;5061982;28;20227;-30
2022/12/11 11:44:44;;;;;;;27.70;15.13;;;4.80;99.90;;;;;;5065219;28;20187;-30
2022/12/11 11:47:24;;;;;;;25.93;15.40;;;4.80;99.90;;;;;;5069855;28;20215;-30
2022/12/11 11:50:15;;;;;;;26.60;14.90;;;4.80;99.90;;;;;;5058729;28;20235;-30
2022/12/11 11:53:18;;;;;;;28.23;14.03;;;4.80;99.90;;;;;;5063989;28;20203;-30
2022/12/11 11:56:16;;;;;;;25.50;14.20;;;4.80;99.90;;;;;;5065189;28;20305;-32
2022/12/11 11:58:58;;;;;;;24.40;14.27;;;4.80;99.90;;;;;;5065784;28;20199;-30
2022/12/11 12:01:25;;;;;;;29.57;14.77;;;4.80;99.90;;;;;;5047287;28;20209;-31
2022/12/11 12:03:53;;;;;;;26.53;14.17;;;4.80;99.90;;;;;;5050023;28;20605;-31
2022/12/11 12:06:35;;;;;;;24.37;14.30;;;4.80;99.90;;;;;;5059734;28;20290;-31
2022/12/11 12:09:18;;;;;;;27.27;14.97;;;4.80;99.90;;;;;;5051293;28;20668;-30
2022/12/11 12:12:00;;;;;;;25.70;14.53;;;4.80;99.90;;;;;;5049931;28;20211;-30
2022/12/11 12:14:34;;;;;;;24.00;13.67;;;4.80;99.90;;;;;;5061101;28;21081;-30
2022/12/11 12:17:37;;;;;;;27.30;15.03;;;4.80;99.90;;;;;;5063422;28;20204;-30
2022/12/11 12:20:16;;;;;;;25.33;14.13;;;4.80;99.90;;;;;;5059596;28;20227;-30
2022/12/11 12:22:46;;;;;;;25.97;14.10;;;4.80;99.90;;;;;;5050922;28;20294;-30
2022/12/11 12:26:06;;;;;;;22.47;13.00;;;4.80;99.90;;;;;;5049259;28;20200;-30
2022/12/11 12:28:52;;;;;;;24.97;13.33;;;4.80;99.90;;;;;;5075121;28;20199;-30
2022/12/11 12:31:34;;;;;;;24.23;13.93;;;4.80;99.90;;;;;;5057708;28;20637;-30
2022/12/11 12:34:09;;;;;;;24.57;13.23;;;4.80;99.90;;;;;;5059223;28;20577;-30
2022/12/11 12:36:50;;;;;;;24.17;13.50;;;4.90;99.90;;;;;;5059316;28;20211;-31
2022/12/11 12:39:42;;;;;;;25.30;13.30;;;4.90;99.90;;;;;;5060320;28;20238;-30
2022/12/11 12:42:26;;;;;;;23.70;12.83;;;4.90;99.90;;;;;;5056490;28;20689;-30
2022/12/11 12:45:02;;;;;;;26.67;13.97;;;4.80;99.90;;;;;;5055665;28;20199;-30
2022/12/11 12:47:32;;;;;;;24.07;13.60;;;4.80;99.90;;;;;;5054304;28;20211;-30
2022/12/11 12:50:10;;;;;;;25.43;13.13;;;4.80;99.90;;;;;;5065902;28;21111;-30
2022/12/11 12:52:43;;;;;;;24.57;13.53;;;4.80;99.90;;;;;;5058345;28;20736;-30
2022/12/11 12:55:21;;;;;;;27.27;15.10;;;4.80;99.90;;;;;;5043807;28;20212;-30
2022/12/11 12:58:05;;;;;;;25.80;14.33;;;4.80;99.90;;;;;;5047647;28;20237;-30
2022/12/11 13:00:41;;;;;;;23.37;13.60;;;4.90;99.90;;;;;;5059603;28;20311;-30
2022/12/11 13:03:17;;;;;;;23.53;13.23;;;4.80;99.90;;;;;;5049681;28;20585;-30
2022/12/11 13:06:04;;;;;;;26.07;14.30;;;4.90;99.90;;;;;;5053236;28;20523;-30
2022/12/11 13:08:47;;;;;;;27.00;13.93;;;4.90;99.90;;;;;;5049806;28;20192;-30
2022/12/11 13:11:19;;;;;;;24.53;13.60;;;5.00;99.90;;;;;;5057688;28;20214;-30
2022/12/11 13:14:00;;;;;;;26.83;14.63;;;5.00;99.90;;;;;;5061097;28;20208;-30
2022/12/11 13:16:37;;;;;;;24.73;14.13;;;5.00;99.90;;;;;;5047087;28;20246;-30
2022/12/11 13:19:29;;;;;;;24.03;14.23;;;5.10;99.90;;;;;;5055287;28;20237;-31